Pagrindinis puslapis
METAR-TAF:

METAR-TAF

Oro uostai :

Monbetsu, Japonija

platuma: 44-15N, ilguma: 143-32E, Aukštis: 6 m

Dabartinis oras

Ataskaita buvo paskelbta 23 minutes, ne 23:40 UTC
Vėjas 14 kt iš Vakarų/Šiaurės Vakarų
Temperatūra -3°C
Drėgmė 80%
Slėgis 1021 hPa
Matomumas: 2300 m
Mažai debesys ne aukštis 500 ft
Išsisklaidę debesys ne aukštis 800 ft
Su prošvaistėmis ne aukštis 1500 ft
sniegas

METAR: RJEB 142340Z 29014KT 2300 R32/2000N -SHSN FEW005 SCT008 BKN015 M03/M06 Q1021 RMK 2ST005 4ST008 6ST015 A3015

Laikas: 09:03 (00:03 UTC)


TAF: trūkstamas

Orai ataskaitas ir orų prognozės (METAR, TAF).

turimą stotys yra geltonos ir raudonos taškus žemėlapyje.

Perkelti pele per norėdami pamatyti stoties vardą.

Tada spustelėkite, norėdami matyti oro stebėjimo ir prognozės.

Norėdami pakeisti žemėlapį: spustelėkite ant žalios mygtukų su juodo kryžiaus žemyn,; žalią mygtuką su brūkšneliu, jei norite nutolinti; arba žalių rodyklių gretimoms žemėlapius.


METAR-TAF: